Warfield, KY

9:29 AM EDT on November 01, 2014 (GMT -0400)
Yeager Airport | Change Station
CLOSE
Current Station
Airport
Location: Charleston,
Elevation: 981 ft
Nearby Weather Stations
Active Advisory: Freeze Watch, Special Statement Active Notice: Record Report

Elev 981 ft 38.38 °N, 81.59 °W | Updated 35 minutes ago

Overcast
Overcast
42 °F
Feels Like 37 °F
N
9
Wind Variable Wind from North

Today
High -- | Low -- °F
--% Chance of Precip.
Yesterday
High -- | Low -- °F
Precip. -- in
7:55 AM 6:30 PM
Waxing Gibbous, 66% visible
Pressure 29.97 in
Visibility 5.0 miles
Clouds Overcast 900 ft
Windchill 37 °F
Dew Point 39 °F
Humidity 89%
Rainfall 0.07 in
Snow Depth Not available.
UV 0 out of 12
Pollen .10 out of 12
Air Quality Not available.
Flu Activity Not available.
METAR KCRW 011254Z 36008KT 5SM -RA BR OVC009 06/04 A2996 RMK AO2 DZE25RAB25 SLP149 P0001 T00560039

More Conditions Fewer Conditions

Pressure 29.97 in
Visibility 5.0 miles
Clouds Overcast 900 ft
Windchill 37 °F
Dew Point 39 °F
Humidity 89%
Rainfall 0.07 in
Snow Depth Not available.
UV 0 out of 12
Pollen .10 out of 12
Air Quality Not available.
Flu Activity Not available.
METAR KCRW 011254Z 36008KT 5SM -RA BR OVC009 06/04 A2996 RMK AO2 DZE25RAB25 SLP149 P0001 T00560039

More Conditions Fewer Conditions

10-Day Weather Forecast

Almanac

Astronomy

Nov. 01, 2014 Rise Set
Actual Time
Civil Twilight
Nautical Twilight
Astronomical Twilight
Moon
Length of Visible Light
Length of Day
Tomorrow will be .
, % of the Moon is Illuminated

Today's Extremes

State Highs State Lows

Community

WunderPhotos

Upload Photos

1,766,931 photos uploaded!

WunderBlogs® & News

Nearby

Air Quality

  Air Quality AQ Index Pollutant
Not available.

Snow Depth

Station Depth Elevation

Earthquake Activity

City Distance Mag. Time & Date
Minimum magnitude displayed is 2.5.

Coastal Water Temperatures

Place Temperature

Nearby Weather Stations